Time;durP1;ratioP1;P1;durP2;ratioP2;P2;SDS_P1;SDS_P2;PMS_P1;PMS_P2;Temp;Humidity;BMP_temperature;BMP_pressure;BME280_temperature;BME280_humidity;BME280_pressure;Samples;Min_cycle;Max_cycle;Signal;HPM_P1;HPM_P2
2022/05/10 00:01:40;;;;;;;2.77;2.40;;;14.00;91.90;;;;;;5043326;28;20215;-65
2022/05/10 00:04:07;;;;;;;2.50;2.30;;;14.00;92.10;;;;;;5053825;28;20406;-67
2022/05/10 00:06:39;;;;;;;5.50;1.90;;;14.00;92.00;;;;;;5053749;28;20170;-65
2022/05/10 00:09:05;;;;;;;3.13;2.27;;;14.00;92.20;;;;;;5053723;28;20444;-65
2022/05/10 00:11:31;;;;;;;2.33;2.00;;;14.10;92.00;;;;;;5053427;28;20433;-66
2022/05/10 00:13:56;;;;;;;4.70;2.30;;;14.00;92.10;;;;;;5053314;28;20809;-65
2022/05/10 00:16:22;;;;;;;3.27;2.63;;;14.00;92.40;;;;;;5035160;28;20582;-65
2022/05/10 00:18:48;;;;;;;2.80;2.30;;;13.90;92.40;;;;;;5053294;28;20235;-65
2022/05/10 00:21:18;;;;;;;4.70;2.50;;;14.00;92.70;;;;;;5043658;28;20202;-65
2022/05/10 00:23:43;;;;;;;5.20;2.30;;;13.90;92.40;;;;;;5033354;28;20175;-67
2022/05/10 00:26:09;;;;;;;4.03;2.43;;;13.90;92.50;;;;;;5032855;28;20494;-65
2022/05/10 00:28:34;;;;;;;2.50;2.20;;;13.90;92.80;;;;;;5040777;28;20175;-66
2022/05/10 00:31:00;;;;;;;2.70;1.83;;;13.80;92.90;;;;;;5044573;28;20198;-66
2022/05/10 00:33:27;;;;;;;3.30;2.30;;;13.80;92.80;;;;;;5048218;28;20179;-65
2022/05/10 00:35:54;;;;;;;2.50;2.30;;;13.70;93.10;;;;;;5012777;28;20195;-65
2022/05/10 00:38:23;;;;;;;5.00;2.37;;;13.70;93.60;;;;;;5013877;28;20437;-66
2022/05/10 00:40:49;;;;;;;4.03;2.23;;;13.70;93.50;;;;;;5032951;28;20552;-66
2022/05/10 00:43:26;;;;;;;5.10;2.30;;;13.70;93.30;;;;;;5032795;28;20924;-67
2022/05/10 00:46:05;;;;;;;10.43;2.50;;;13.60;93.40;;;;;;5032950;28;20720;-67
2022/05/10 00:48:41;;;;;;;2.00;1.80;;;13.60;93.80;;;;;;5032223;28;20797;-66
2022/05/10 00:51:24;;;;;;;3.43;2.90;;;13.50;94.00;;;;;;5032996;28;20434;-66
2022/05/10 00:54:04;;;;;;;4.80;3.17;;;13.50;94.20;;;;;;5033054;28;20493;-66
2022/05/10 00:56:48;;;;;;;2.97;2.30;;;13.50;94.20;;;;;;5014138;28;20770;-67
2022/05/10 00:59:28;;;;;;;2.80;2.33;;;13.50;94.30;;;;;;5012838;28;20407;-67
2022/05/10 01:02:04;;;;;;;3.50;2.40;;;13.40;94.40;;;;;;5012994;28;20411;-66
2022/05/10 01:04:38;;;;;;;6.03;2.93;;;13.40;94.60;;;;;;5013038;28;20407;-66
2022/05/10 01:07:13;;;;;;;3.83;2.70;;;13.40;94.60;;;;;;5012933;28;20460;-66
2022/05/10 01:10:01;;;;;;;2.60;2.40;;;13.40;94.80;;;;;;5012835;28;20584;-66
2022/05/10 01:12:33;;;;;;;5.27;2.70;;;13.30;95.00;;;;;;5013111;28;20745;-67
2022/05/10 01:15:05;;;;;;;4.03;2.60;;;13.30;95.20;;;;;;5012930;28;20411;-67
2022/05/10 01:17:31;;;;;;;3.10;2.30;;;13.20;95.40;;;;;;5022626;28;20626;-66
2022/05/10 01:19:56;;;;;;;2.47;2.27;;;13.10;95.40;;;;;;5014660;28;20556;-66
2022/05/10 01:22:49;;;;;;;2.30;2.00;;;13.10;95.80;;;;;;5032017;28;20176;-69
2022/05/10 01:25:28;;;;;;;4.53;2.77;;;13.00;95.90;;;;;;5032221;28;20172;-66
2022/05/10 01:28:11;;;;;;;4.87;3.37;;;13.00;96.10;;;;;;5024042;28;20411;-66
2022/05/10 01:30:38;;;;;;;4.60;2.80;;;12.90;96.40;;;;;;5012395;28;20470;-66
2022/05/10 01:33:30;;;;;;;3.73;2.60;;;12.90;96.60;;;;;;5012428;28;20419;-66
2022/05/10 01:35:55;;;;;;;2.90;2.33;;;12.90;96.80;;;;;;5012257;28;20267;-66
2022/05/10 01:38:42;;;;;;;2.50;2.30;;;12.90;96.70;;;;;;5012260;28;20439;-66
2022/05/10 01:41:18;;;;;;;3.83;2.20;;;12.80;96.90;;;;;;5011939;28;20200;-67
2022/05/10 01:43:57;;;;;;;3.07;2.43;;;12.90;97.10;;;;;;5016669;28;20500;-67
2022/05/10 01:46:30;;;;;;;4.30;2.00;;;12.80;97.10;;;;;;5031882;28;20411;-67
2022/05/10 01:49:04;;;;;;;2.60;2.13;;;12.80;97.10;;;;;;5031971;28;20763;-67
2022/05/10 01:51:49;;;;;;;2.67;2.47;;;12.80;97.20;;;;;;5031882;28;20505;-67
2022/05/10 01:54:40;;;;;;;4.60;2.67;;;12.70;97.40;;;;;;5031928;28;20414;-67
2022/05/10 01:57:13;;;;;;;3.00;2.30;;;12.70;97.50;;;;;;5032292;28;20418;-67
2022/05/10 01:59:43;;;;;;;2.37;2.10;;;12.60;97.90;;;;;;5030866;28;20474;-67
2022/05/10 02:02:10;;;;;;;3.73;2.30;;;12.60;97.80;;;;;;5031578;28;20442;-67
2022/05/10 02:04:39;;;;;;;7.03;3.00;;;12.60;98.00;;;;;;5031479;28;20816;-67
2022/05/10 02:07:13;;;;;;;3.93;2.20;;;12.60;98.00;;;;;;5031755;28;20406;-67
2022/05/10 02:10:00;;;;;;;3.00;2.40;;;12.60;98.10;;;;;;5031642;28;20495;-67
2022/05/10 02:12:39;;;;;;;2.30;2.10;;;12.50;98.40;;;;;;5031205;28;20417;-67
2022/05/10 02:15:13;;;;;;;3.77;2.43;;;12.50;98.40;;;;;;5031623;28;20398;-67
2022/05/10 02:17:49;;;;;;;2.73;2.47;;;12.50;98.50;;;;;;5031507;28;20399;-67
2022/05/10 02:20:30;;;;;;;3.27;2.90;;;12.40;98.60;;;;;;5031410;28;20454;-67
2022/05/10 02:23:14;;;;;;;2.47;2.27;;;12.40;98.80;;;;;;5031325;28;20406;-67
2022/05/10 02:25:44;;;;;;;4.17;2.57;;;12.40;98.70;;;;;;5031414;28;20409;-67
2022/05/10 02:28:34;;;;;;;2.73;2.53;;;12.40;98.90;;;;;;5031411;28;20402;-67
2022/05/10 02:31:05;;;;;;;3.30;2.47;;;12.40;99.00;;;;;;5031074;28;20449;-67
2022/05/10 02:33:31;;;;;;;2.13;1.97;;;12.40;99.10;;;;;;5031112;28;20430;-69
2022/05/10 02:35:59;;;;;;;3.37;2.40;;;12.40;99.10;;;;;;5031094;28;20959;-68
2022/05/10 02:38:30;;;;;;;2.30;1.83;;;12.40;99.50;;;;;;5031195;28;20176;-66
2022/05/10 02:40:59;;;;;;;4.30;3.17;;;12.30;99.30;;;;;;5031091;28;20549;-66
2022/05/10 02:43:30;;;;;;;2.53;2.33;;;12.30;99.30;;;;;;5030940;28;20445;-66
2022/05/10 02:45:56;;;;;;;2.97;2.67;;;12.20;99.50;;;;;;5030964;28;20399;-66
2022/05/10 02:48:27;;;;;;;4.20;2.80;;;12.20;99.60;;;;;;5031299;28;20406;-67
2022/05/10 02:50:53;;;;;;;6.87;3.17;;;12.20;99.80;;;;;;5031071;28;20426;-67
2022/05/10 02:53:19;;;;;;;2.77;2.50;;;12.20;99.80;;;;;;5031090;28;20756;-67
2022/05/10 02:55:56;;;;;;;2.47;2.27;;;12.20;99.60;;;;;;5031285;28;20176;-67
2022/05/10 02:58:32;;;;;;;5.70;2.90;;;12.10;99.80;;;;;;5031563;28;20459;-67
2022/05/10 03:01:14;;;;;;;2.20;1.90;;;12.10;99.90;;;;;;5030948;28;20485;-66
2022/05/10 03:03:40;;;;;;;3.77;2.37;;;12.30;99.90;;;;;;5031056;28;20493;-67
2022/05/10 03:06:06;;;;;;;2.80;2.00;;;12.20;99.60;;;;;;5031217;28;20481;-66
2022/05/10 03:08:32;;;;;;;2.83;2.20;;;12.20;99.90;;;;;;5031240;28;20230;-66
2022/05/10 03:10:58;;;;;;;10.17;3.57;;;12.10;99.80;;;;;;5031562;28;20878;-66
2022/05/10 03:13:23;;;;;;;2.80;2.60;;;12.10;99.90;;;;;;5035528;28;20346;-66
2022/05/10 03:15:49;;;;;;;4.13;2.83;;;12.10;99.90;;;;;;5035837;28;20904;-66
2022/05/10 03:18:14;;;;;;;2.23;2.03;;;12.20;99.70;;;;;;5035405;28;20254;-66
2022/05/10 03:20:40;;;;;;;2.90;2.03;;;12.00;99.80;;;;;;5034871;28;20192;-69
2022/05/10 03:23:05;;;;;;;4.27;3.30;;;12.10;99.80;;;;;;5034595;28;20191;-68
2022/05/10 03:25:31;;;;;;;3.00;2.53;;;12.00;99.70;;;;;;5034371;28;20172;-68
2022/05/10 03:27:59;;;;;;;2.43;2.23;;;12.00;99.70;;;;;;5034821;28;20504;-68
2022/05/10 03:30:25;;;;;;;3.43;3.07;;;12.00;99.90;;;;;;5034419;28;20511;-67
2022/05/10 03:32:52;;;;;;;3.50;2.83;;;12.00;99.90;;;;;;5034340;28;20417;-67
2022/05/10 03:35:18;;;;;;;3.73;2.50;;;12.00;99.90;;;;;;5034324;28;20497;-67
2022/05/10 03:37:43;;;;;;;2.80;2.03;;;12.00;99.90;;;;;;5034449;28;20410;-69
2022/05/10 03:40:10;;;;;;;4.10;3.27;;;12.00;99.90;;;;;;5034195;28;20217;-69
2022/05/10 03:42:42;;;;;;;3.60;2.43;;;12.00;99.90;;;;;;5034404;28;20184;-67
2022/05/10 03:45:08;;;;;;;2.97;1.80;;;12.00;99.90;;;;;;5034287;28;20422;-67
2022/05/10 03:47:34;;;;;;;2.80;2.60;;;12.00;99.90;;;;;;5034191;28;20472;-67
2022/05/10 03:49:59;;;;;;;3.53;2.63;;;12.00;99.90;;;;;;5034178;28;20434;-67
2022/05/10 03:52:25;;;;;;;3.50;3.20;;;12.00;99.90;;;;;;5034600;28;20168;-67
2022/05/10 03:54:50;;;;;;;5.23;3.50;;;12.00;99.90;;;;;;5034400;28;20171;-67
2022/05/10 03:57:16;;;;;;;6.37;2.40;;;12.10;99.90;;;;;;5034289;28;20680;-67
2022/05/10 03:59:41;;;;;;;4.37;3.00;;;12.10;99.90;;;;;;5033962;28;20203;-67
2022/05/10 04:02:12;;;;;;;3.90;3.07;;;12.20;99.90;;;;;;5034224;28;20317;-67
2022/05/10 04:04:38;;;;;;;3.00;2.50;;;12.10;99.90;;;;;;5034145;28;20164;-67
2022/05/10 04:07:05;;;;;;;2.60;2.40;;;12.20;99.90;;;;;;5034016;28;20410;-67
2022/05/10 04:09:31;;;;;;;2.63;2.40;;;12.30;99.90;;;;;;5034474;28;20552;-67
2022/05/10 04:11:57;;;;;;;2.90;2.53;;;12.30;99.90;;;;;;5034321;28;20427;-67
2022/05/10 04:14:23;;;;;;;3.43;2.70;;;12.30;99.90;;;;;;5033866;28;20160;-67
2022/05/10 04:16:48;;;;;;;3.50;2.57;;;12.30;99.90;;;;;;5033596;28;20469;-67
2022/05/10 04:19:13;;;;;;;4.17;2.50;;;12.30;99.90;;;;;;5033481;28;20183;-68
2022/05/10 04:21:39;;;;;;;5.73;2.83;;;12.40;99.90;;;;;;5033359;28;20274;-67
2022/05/10 04:24:05;;;;;;;4.73;2.80;;;12.50;99.80;;;;;;5032559;28;20259;-67
2022/05/10 04:26:30;;;;;;;2.97;2.60;;;12.50;99.90;;;;;;5033490;28;20633;-67
2022/05/10 04:28:57;;;;;;;2.63;2.43;;;12.50;99.80;;;;;;5033699;28;20176;-67
2022/05/10 04:31:23;;;;;;;2.67;2.40;;;12.50;99.80;;;;;;5033420;28;20184;-67
2022/05/10 04:33:48;;;;;;;5.63;4.47;;;12.60;99.80;;;;;;5033369;28;20779;-67
2022/05/10 04:36:14;;;;;;;3.07;2.80;;;12.60;99.80;;;;;;5033180;28;20603;-66
2022/05/10 04:38:39;;;;;;;7.60;2.73;;;12.70;99.90;;;;;;5033305;28;20179;-66
2022/05/10 04:43:49;;;;;;;2.97;2.50;;;12.80;99.50;;;;;;5033406;28;20258;-67
2022/05/10 04:46:15;;;;;;;3.07;2.87;;;12.90;99.70;;;;;;5033041;28;20434;-67
2022/05/10 04:48:40;;;;;;;2.60;2.13;;;12.90;99.60;;;;;;5033048;28;20225;-67
2022/05/10 04:51:06;;;;;;;3.30;3.10;;;12.90;99.60;;;;;;5033035;28;20434;-67
2022/05/10 04:53:32;;;;;;;3.27;2.90;;;13.10;99.50;;;;;;5032970;28;20178;-68
2022/05/10 04:55:58;;;;;;;3.27;2.73;;;13.10;99.70;;;;;;5032853;28;20488;-67
2022/05/10 04:58:24;;;;;;;2.83;2.63;;;13.20;99.10;;;;;;5033319;28;20410;-67
2022/05/10 05:00:49;;;;;;;4.80;3.13;;;13.20;99.00;;;;;;5032594;28;20218;-67
2022/05/10 05:03:15;;;;;;;3.60;2.67;;;13.20;99.10;;;;;;5032912;28;20199;-67
2022/05/10 05:05:40;;;;;;;5.07;3.23;;;13.50;99.20;;;;;;5032491;28;20172;-67
2022/05/10 05:08:06;;;;;;;3.70;2.60;;;13.70;99.00;;;;;;5032742;28;20164;-67
2022/05/10 05:10:31;;;;;;;3.07;2.83;;;14.30;98.50;;;;;;5032852;28;20551;-66
2022/05/10 05:12:58;;;;;;;9.90;4.03;;;14.70;97.30;;;;;;5033345;28;20181;-65
2022/05/10 05:15:23;;;;;;;3.67;2.67;;;14.80;96.80;;;;;;5032828;28;20188;-66
2022/05/10 05:17:49;;;;;;;3.93;2.60;;;15.40;96.50;;;;;;5032210;28;20710;-65
2022/05/10 05:20:14;;;;;;;3.70;2.90;;;15.30;96.30;;;;;;5014388;28;20241;-66
2022/05/10 05:22:40;;;;;;;5.47;3.53;;;15.10;97.40;;;;;;5032617;28;20216;-65
2022/05/10 05:25:06;;;;;;;4.53;2.90;;;15.40;96.30;;;;;;5032106;28;20176;-67
2022/05/10 05:27:33;;;;;;;3.43;3.13;;;15.50;97.00;;;;;;5032442;28;20177;-68
2022/05/10 05:29:59;;;;;;;2.60;2.17;;;16.00;95.40;;;;;;5032170;28;20432;-66
2022/05/10 05:32:28;;;;;;;3.63;3.10;;;15.80;95.80;;;;;;5032161;28;20424;-66
2022/05/10 05:34:55;;;;;;;4.13;3.30;;;16.80;94.20;;;;;;5032199;28;20408;-66
2022/05/10 05:37:33;;;;;;;3.77;3.33;;;16.10;94.70;;;;;;5031974;28;20434;-66
2022/05/10 05:40:01;;;;;;;3.43;2.40;;;16.80;94.90;;;;;;5031593;28;20776;-66
2022/05/10 05:42:26;;;;;;;3.90;2.90;;;17.70;93.40;;;;;;5031656;28;20407;-66
2022/05/10 05:44:52;;;;;;;3.10;2.80;;;18.10;92.40;;;;;;5031271;28;20766;-66
2022/05/10 05:47:18;;;;;;;4.43;2.50;;;18.10;91.70;;;;;;5031574;28;20175;-66
2022/05/10 05:49:43;;;;;;;3.67;3.33;;;17.50;92.30;;;;;;5031522;28;20193;-66
2022/05/10 05:52:09;;;;;;;5.30;2.93;;;17.50;92.30;;;;;;5031480;28;20256;-67
2022/05/10 05:54:34;;;;;;;5.37;2.60;;;18.00;92.20;;;;;;5031856;28;20180;-67
2022/05/10 05:57:05;;;;;;;9.03;3.03;;;17.40;93.20;;;;;;5031801;28;20661;-67
2022/05/10 05:59:31;;;;;;;3.60;3.07;;;17.60;92.80;;;;;;5031619;28;20197;-67
2022/05/10 06:01:57;;;;;;;6.07;2.77;;;17.90;92.70;;;;;;5069949;22;20514;-69
2022/05/10 06:04:23;;;;;;;4.37;2.90;;;17.90;92.60;;;;;;5049680;28;20501;-69
2022/05/10 06:06:49;;;;;;;3.33;3.03;;;18.10;92.30;;;;;;5054014;28;20844;-69
2022/05/10 06:09:15;;;;;;;3.80;3.03;;;18.50;92.00;;;;;;5053252;28;20172;-71
2022/05/10 06:11:41;;;;;;;3.70;2.97;;;18.40;92.00;;;;;;5052819;28;20506;-67
2022/05/10 06:14:06;;;;;;;6.40;3.13;;;19.40;91.10;;;;;;5054386;28;20411;-70
2022/05/10 06:16:32;;;;;;;4.37;3.10;;;19.40;90.10;;;;;;5052818;28;20171;-68
2022/05/10 06:18:58;;;;;;;3.70;3.00;;;20.20;90.40;;;;;;5053353;28;20178;-68
2022/05/10 06:21:23;;;;;;;3.93;3.00;;;20.30;88.70;;;;;;5052871;28;20470;-68
2022/05/10 06:23:49;;;;;;;3.33;3.03;;;19.90;89.30;;;;;;5039519;28;20697;-68
2022/05/10 06:26:14;;;;;;;5.10;2.47;;;19.70;89.40;;;;;;5035488;28;20225;-68
2022/05/10 06:28:40;;;;;;;3.00;2.27;;;20.10;89.70;;;;;;5029409;28;20207;-69
2022/05/10 06:31:07;;;;;;;4.70;2.77;;;21.30;85.50;;;;;;5031819;28;20205;-68
2022/05/10 06:33:32;;;;;;;3.17;2.40;;;20.10;87.20;;;;;;5030638;28;20234;-68
2022/05/10 06:35:58;;;;;;;4.07;2.80;;;20.10;88.40;;;;;;5032691;28;20493;-73
2022/05/10 06:38:29;;;;;;;3.57;3.27;;;20.60;87.40;;;;;;5016026;28;20178;-70
2022/05/10 06:40:57;;;;;;;3.17;2.70;;;20.30;87.00;;;;;;5030162;28;20266;-69
2022/05/10 06:43:22;;;;;;;3.20;2.70;;;21.30;86.50;;;;;;5033645;28;20414;-69
2022/05/10 06:45:49;;;;;;;2.63;2.43;;;20.30;85.60;;;;;;5034004;28;20408;-68
2022/05/10 06:48:15;;;;;;;2.77;2.50;;;21.00;86.90;;;;;;5039764;28;20168;-68
2022/05/10 06:50:42;;;;;;;4.60;3.00;;;21.30;85.10;;;;;;5039297;28;20445;-68
2022/05/10 06:53:09;;;;;;;3.13;2.30;;;21.70;85.40;;;;;;5039704;28;20412;-69
2022/05/10 06:55:38;;;;;;;3.70;2.77;;;21.60;83.10;;;;;;5039208;28;20420;-69
2022/05/10 06:58:04;;;;;;;6.93;3.10;;;21.30;83.50;;;;;;5036082;28;20456;-69
2022/05/10 07:00:33;;;;;;;4.60;2.67;;;22.10;84.40;;;;;;5039397;28;20709;-69
2022/05/10 07:03:02;;;;;;;2.63;2.40;;;21.60;83.70;;;;;;5040458;28;20448;-68
2022/05/10 07:05:27;;;;;;;2.53;2.33;;;20.60;84.80;;;;;;5039718;28;20886;-69
2022/05/10 07:07:53;;;;;;;3.50;2.27;;;21.00;86.20;;;;;;5039180;28;20442;-69
2022/05/10 07:10:18;;;;;;;3.40;2.03;;;21.30;83.50;;;;;;5021335;28;20569;-69
2022/05/10 07:12:45;;;;;;;3.73;3.13;;;21.60;85.20;;;;;;5038989;28;20542;-69
2022/05/10 07:15:14;;;;;;;2.27;2.07;;;22.60;80.00;;;;;;5039393;28;20613;-69
2022/05/10 07:17:39;;;;;;;2.90;2.60;;;22.40;82.20;;;;;;5038754;28;20416;-68
2022/05/10 07:20:07;;;;;;;3.40;2.97;;;22.20;83.10;;;;;;5020944;28;20473;-68
2022/05/10 07:22:33;;;;;;;5.23;2.73;;;22.90;79.10;;;;;;5039069;28;20179;-68
2022/05/10 07:24:58;;;;;;;5.07;2.67;;;22.20;81.40;;;;;;5038697;28;20421;-69
2022/05/10 07:27:24;;;;;;;3.90;2.87;;;23.50;80.80;;;;;;5038987;28;20622;-69
2022/05/10 07:29:49;;;;;;;3.90;2.77;;;23.90;80.00;;;;;;5039178;28;20176;-68
2022/05/10 07:32:15;;;;;;;3.37;2.53;;;23.90;82.40;;;;;;5043893;28;20530;-68
2022/05/10 07:34:42;;;;;;;3.23;2.93;;;24.20;78.50;;;;;;5050241;28;20270;-68
2022/05/10 07:37:08;;;;;;;2.77;2.57;;;23.40;77.00;;;;;;5058904;28;20612;-69
2022/05/10 07:39:33;;;;;;;2.97;2.67;;;23.10;78.50;;;;;;5058737;28;20812;-68
2022/05/10 07:42:01;;;;;;;3.13;2.60;;;24.70;75.40;;;;;;5058691;28;20425;-68
2022/05/10 07:44:27;;;;;;;3.00;2.70;;;25.10;75.00;;;;;;5059000;28;20224;-68
2022/05/10 07:46:52;;;;;;;2.27;2.17;;;23.90;74.70;;;;;;5042123;28;20418;-68
2022/05/10 07:49:17;;;;;;;2.80;2.40;;;24.20;77.30;;;;;;5058471;28;20202;-69
2022/05/10 07:51:43;;;;;;;2.00;1.77;;;25.00;74.10;;;;;;5058987;28;20191;-70
2022/05/10 07:54:08;;;;;;;3.00;2.73;;;24.20;73.10;;;;;;5059207;28;20167;-69
2022/05/10 07:56:34;;;;;;;4.17;2.97;;;24.00;74.80;;;;;;5060348;28;20171;-69
2022/05/10 07:58:59;;;;;;;5.63;2.40;;;25.50;77.10;;;;;;5047847;28;20191;-69
2022/05/10 08:01:26;;;;;;;3.07;2.80;;;25.50;76.00;;;;;;5037165;28;20215;-73
2022/05/10 08:03:52;;;;;;;2.87;2.60;;;25.50;72.80;;;;;;5031204;28;20172;-69
2022/05/10 08:06:18;;;;;;;4.90;2.80;;;24.60;72.40;;;;;;5018032;28;20414;-69
2022/05/10 08:08:43;;;;;;;2.80;2.33;;;24.80;74.20;;;;;;5018246;28;20407;-69
2022/05/10 08:11:09;;;;;;;2.77;2.40;;;24.40;72.70;;;;;;5018725;28;20204;-70
2022/05/10 08:13:37;;;;;;;3.23;2.40;;;24.20;75.50;;;;;;5017865;28;20196;-69
2022/05/10 08:16:03;;;;;;;4.20;2.90;;;24.50;70.90;;;;;;5025617;28;20183;-70
2022/05/10 08:18:29;;;;;;;2.23;2.03;;;25.50;68.50;;;;;;5037800;28;20447;-70
2022/05/10 08:20:58;;;;;;;7.50;3.80;;;26.00;70.60;;;;;;5038293;28;20978;-70
2022/05/10 08:23:26;;;;;;;3.53;2.20;;;26.40;66.50;;;;;;5034593;28;20413;-69
2022/05/10 08:25:54;;;;;;;3.57;2.60;;;26.70;65.80;;;;;;5034900;28;20417;-70
2022/05/10 08:28:20;;;;;;;4.00;2.67;;;26.90;64.00;;;;;;5035131;28;20972;-69
2022/05/10 08:30:46;;;;;;;3.33;2.80;;;26.00;63.80;;;;;;5036129;28;20532;-70
2022/05/10 08:33:24;;;;;;;3.83;2.20;;;25.50;64.70;;;;;;5019243;28;20673;-69
2022/05/10 08:35:50;;;;;;;3.47;2.40;;;25.90;70.60;;;;;;5015077;28;20403;-69
2022/05/10 08:38:16;;;;;;;2.63;2.43;;;25.80;68.90;;;;;;5032944;28;20446;-69
2022/05/10 08:40:52;;;;;;;2.73;1.97;;;26.70;65.00;;;;;;5034790;28;20454;-70
2022/05/10 08:43:25;;;;;;;4.13;2.47;;;27.10;61.80;;;;;;5034389;28;20846;-70
2022/05/10 08:45:52;;;;;;;4.00;2.47;;;27.30;59.80;;;;;;5034945;28;20460;-70
2022/05/10 08:48:17;;;;;;;3.23;1.90;;;27.20;59.80;;;;;;5034265;28;20858;-70
2022/05/10 08:50:47;;;;;;;2.87;2.40;;;26.50;64.50;;;;;;5035169;28;20474;-69
2022/05/10 08:53:15;;;;;;;2.70;1.80;;;26.00;61.60;;;;;;5034313;28;20305;-70
2022/05/10 08:55:47;;;;;;;2.67;2.47;;;25.50;61.40;;;;;;5034345;28;20508;-70
2022/05/10 08:58:50;;;;;;;2.87;2.13;;;25.70;62.30;;;;;;5016860;28;20422;-69
2022/05/10 09:01:21;;;;;;;4.27;3.20;;;27.20;59.60;;;;;;5034322;28;20986;-69
2022/05/10 09:03:53;;;;;;;2.13;1.90;;;27.50;58.40;;;;;;5034311;28;20411;-69
2022/05/10 09:06:34;;;;;;;3.53;2.30;;;27.70;58.80;;;;;;5034452;28;20870;-70
2022/05/10 09:09:20;;;;;;;3.23;2.17;;;26.10;60.20;;;;;;5042792;28;20516;-68
2022/05/10 09:11:52;;;;;;;1.87;1.70;;;26.10;59.80;;;;;;5044272;28;20929;-69
2022/05/10 09:14:27;;;;;;;2.70;2.10;;;26.00;58.30;;;;;;5014480;28;20488;-69
2022/05/10 09:16:54;;;;;;;2.80;1.90;;;25.70;58.20;;;;;;5014576;28;20410;-69
2022/05/10 09:19:25;;;;;;;1.73;1.63;;;25.60;59.40;;;;;;5014571;28;20758;-69
2022/05/10 09:21:54;;;;;;;3.40;2.10;;;25.40;59.40;;;;;;5014467;28;20443;-69
2022/05/10 09:24:33;;;;;;;4.57;2.13;;;25.50;61.30;;;;;;5014818;28;20434;-70
2022/05/10 09:27:09;;;;;;;3.63;2.30;;;25.70;59.30;;;;;;5032573;28;20784;-68
2022/05/10 09:29:42;;;;;;;2.60;2.40;;;25.80;59.10;;;;;;5033549;28;20531;-71
2022/05/10 09:35:22;;;;;;;4.37;1.53;;;25.70;58.40;;;;;;5031482;28;20465;-69
2022/05/10 09:37:48;;;;;;;1.70;1.60;;;26.40;57.50;;;;;;5013729;28;20434;-68
2022/05/10 09:40:25;;;;;;;1.53;1.27;;;27.70;56.90;;;;;;5013352;28;20999;-68
2022/05/10 09:42:53;;;;;;;2.17;1.20;;;27.70;55.50;;;;;;5014090;28;20251;-69
2022/05/10 09:45:26;;;;;;;17.07;11.27;;;26.80;59.50;;;;;;5013837;28;20399;-69
2022/05/10 09:48:00;;;;;;;2.30;1.83;;;26.50;59.60;;;;;;4996002;28;20411;-69
2022/05/10 09:50:33;;;;;;;3.43;2.80;;;26.70;58.00;;;;;;5018708;28;20512;-70
2022/05/10 09:53:19;;;;;;;2.77;2.20;;;27.90;55.80;;;;;;5032972;28;20498;-70
2022/05/10 09:56:03;;;;;;;1.83;1.70;;;27.50;56.00;;;;;;5033313;28;20401;-70
2022/05/10 09:58:54;;;;;;;2.10;1.90;;;26.90;57.60;;;;;;5033365;28;20403;-69
2022/05/10 10:01:37;;;;;;;2.40;2.20;;;25.90;58.20;;;;;;5025500;28;20525;-69
2022/05/10 10:04:37;;;;;;;2.20;2.00;;;25.40;58.70;;;;;;5033104;28;20445;-70
2022/05/10 10:07:03;;;;;;;3.33;2.03;;;25.90;58.10;;;;;;5019801;28;20543;-70
2022/05/10 10:09:39;;;;;;;2.60;1.77;;;25.40;59.30;;;;;;5013164;28;20416;-69
2022/05/10 10:12:26;;;;;;;2.93;2.63;;;25.70;59.50;;;;;;5013245;28;20429;-69
2022/05/10 10:14:51;;;;;;;5.17;1.93;;;25.70;61.90;;;;;;5032453;28;20430;-69
2022/05/10 10:17:30;;;;;;;1.60;1.50;;;25.70;60.20;;;;;;5035502;28;20431;-69
2022/05/10 10:20:20;;;;;;;3.27;2.17;;;25.60;60.60;;;;;;5034752;28;20199;-69
2022/05/10 10:22:49;;;;;;;1.30;1.20;;;25.30;60.70;;;;;;5034086;28;20403;-68
2022/05/10 10:25:25;;;;;;;2.47;1.37;;;25.20;60.70;;;;;;5033054;28;20828;-69
2022/05/10 10:28:11;;;;;;;2.50;2.30;;;25.40;60.30;;;;;;5016540;28;20444;-69
2022/05/10 10:30:43;;;;;;;3.70;3.50;;;26.10;60.10;;;;;;5033445;28;20957;-69
2022/05/10 10:33:34;;;;;;;2.03;1.83;;;25.80;60.60;;;;;;5038126;28;20421;-70
2022/05/10 10:36:10;;;;;;;3.07;1.50;;;25.60;60.40;;;;;;5035308;28;20486;-70
2022/05/10 10:39:05;;;;;;;2.50;1.90;;;25.80;59.60;;;;;;5035273;28;20405;-70
2022/05/10 10:41:47;;;;;;;2.40;2.13;;;26.00;59.60;;;;;;5034597;28;20469;-70
2022/05/10 10:44:21;;;;;;;2.13;1.87;;;25.70;59.90;;;;;;5016337;28;20404;-69
2022/05/10 10:46:59;;;;;;;1.83;1.40;;;25.40;61.70;;;;;;5038317;28;20402;-69
2022/05/10 10:49:35;;;;;;;2.20;2.00;;;25.30;61.90;;;;;;5047874;28;20404;-69
2022/05/10 10:52:01;;;;;;;1.83;1.73;;;25.20;63.70;;;;;;5053045;28;20417;-69
2022/05/10 10:54:29;;;;;;;1.90;1.70;;;25.70;63.80;;;;;;5050802;28;20398;-69
2022/05/10 10:57:08;;;;;;;3.80;2.10;;;25.40;63.30;;;;;;5032105;28;20635;-69
2022/05/10 11:00:10;;;;;;;5.77;4.13;;;25.80;62.60;;;;;;5031849;28;20456;-69
2022/05/10 11:03:00;;;;;;;2.50;2.03;;;25.90;64.10;;;;;;5032265;28;21271;-69
2022/05/10 11:05:56;;;;;;;2.40;1.87;;;25.80;62.80;;;;;;5033542;28;20414;-69
2022/05/10 11:08:46;;;;;;;10.23;8.20;;;25.60;63.00;;;;;;5032506;28;20405;-69
2022/05/10 11:11:31;;;;;;;4.30;2.80;;;25.90;63.70;;;;;;5032530;28;20472;-69
2022/05/10 11:14:22;;;;;;;3.80;1.80;;;26.20;62.50;;;;;;5031985;28;20884;-69
2022/05/10 11:17:32;;;;;;;3.10;2.20;;;25.70;63.00;;;;;;5032338;28;20402;-69
2022/05/10 11:19:57;;;;;;;3.70;3.27;;;26.20;60.00;;;;;;5033929;28;20460;-69
2022/05/10 11:22:39;;;;;;;5.87;3.33;;;26.50;61.20;;;;;;5035321;28;20504;-70
2022/05/10 11:25:23;;;;;;;2.20;1.93;;;26.40;63.90;;;;;;5032362;28;20175;-70
2022/05/10 11:28:08;;;;;;;9.77;7.33;;;26.10;61.80;;;;;;5031878;28;20404;-69
2022/05/10 11:30:56;;;;;;;2.60;2.40;;;26.00;62.00;;;;;;5032279;28;20429;-69
2022/05/10 11:33:32;;;;;;;3.93;3.57;;;26.60;61.60;;;;;;5024291;28;20412;-69
2022/05/10 11:36:21;;;;;;;4.07;2.00;;;26.40;63.30;;;;;;5035443;28;20413;-70
2022/05/10 11:39:14;;;;;;;2.10;1.93;;;26.30;61.50;;;;;;5035589;28;20436;-69
2022/05/10 11:42:10;;;;;;;2.10;1.90;;;26.50;61.40;;;;;;5035578;28;20517;-69
2022/05/10 11:44:52;;;;;;;2.50;1.93;;;25.90;62.70;;;;;;5035674;28;20412;-70
2022/05/10 11:47:42;;;;;;;2.90;1.87;;;26.10;62.20;;;;;;5036585;28;20410;-70
2022/05/10 11:50:36;;;;;;;3.40;2.40;;;26.00;61.70;;;;;;5018233;28;20508;-70
2022/05/10 11:53:20;;;;;;;2.67;1.83;;;25.90;62.20;;;;;;5037953;28;20437;-70
2022/05/10 11:55:59;;;;;;;2.10;1.90;;;26.00;62.30;;;;;;5038276;28;20502;-70
2022/05/10 11:58:27;;;;;;;1.70;1.60;;;26.10;64.20;;;;;;5039113;28;20496;-70
2022/05/10 12:00:58;;;;;;;1.93;1.77;;;26.00;60.90;;;;;;5064871;23;20527;-69
2022/05/10 12:03:51;;;;;;;1.83;1.73;;;26.20;61.50;;;;;;5045435;28;20997;-69
2022/05/10 12:06:22;;;;;;;2.07;1.97;;;26.10;61.00;;;;;;5050981;28;20417;-67
2022/05/10 12:08:55;;;;;;;3.43;1.93;;;26.30;63.50;;;;;;5053897;28;20395;-67
2022/05/10 12:11:37;;;;;;;3.20;2.27;;;26.50;63.50;;;;;;5054036;28;20521;-67
2022/05/10 12:22:47;;;;;;;2.13;1.93;;;26.90;59.10;;;;;;5054017;28;20835;-67
2022/05/10 12:25:50;;;;;;;2.50;2.30;;;27.10;59.40;;;;;;5053854;28;20410;-68
2022/05/10 12:28:42;;;;;;;2.33;2.13;;;27.10;59.80;;;;;;5051566;28;20470;-68
2022/05/10 12:31:45;;;;;;;2.20;2.00;;;26.90;58.80;;;;;;5053406;28;20420;-68
2022/05/10 12:34:31;;;;;;;2.20;2.00;;;27.00;60.10;;;;;;5053418;28;20491;-67
2022/05/10 12:37:26;;;;;;;1.90;1.73;;;27.00;59.20;;;;;;5053427;28;20760;-67
2022/05/10 12:40:04;;;;;;;1.50;1.40;;;26.70;58.90;;;;;;5053165;28;20519;-68
2022/05/10 12:42:38;;;;;;;1.80;1.70;;;27.10;59.80;;;;;;5053086;28;20810;-69
2022/05/10 12:45:44;;;;;;;2.00;1.67;;;27.20;58.80;;;;;;5052416;28;20453;-68
2022/05/10 12:48:28;;;;;;;1.67;1.57;;;26.90;60.40;;;;;;5053241;28;20427;-66
2022/05/10 12:50:53;;;;;;;2.10;1.93;;;27.10;59.20;;;;;;5053155;28;20793;-67
2022/05/10 12:53:27;;;;;;;2.30;2.10;;;26.80;58.80;;;;;;5053197;28;20400;-66
2022/05/10 12:56:04;;;;;;;3.27;2.20;;;26.60;58.60;;;;;;5053032;28;20170;-67
2022/05/10 12:58:34;;;;;;;2.40;2.00;;;27.10;58.70;;;;;;5052783;28;20938;-66
2022/05/10 13:01:01;;;;;;;3.43;2.20;;;27.00;58.20;;;;;;5052781;28;20490;-66
2022/05/10 13:03:35;;;;;;;2.30;1.97;;;27.00;58.60;;;;;;5052618;28;20404;-67
2022/05/10 13:06:24;;;;;;;1.93;1.70;;;26.90;59.10;;;;;;5052670;28;20483;-66
2022/05/10 13:09:16;;;;;;;1.80;1.70;;;27.40;59.60;;;;;;5052770;28;20426;-67
2022/05/10 13:11:56;;;;;;;2.23;2.10;;;27.60;59.00;;;;;;5052352;28;20433;-67
2022/05/10 13:14:22;;;;;;;1.70;1.60;;;27.50;58.70;;;;;;5052804;28;20514;-67
2022/05/10 13:16:51;;;;;;;2.10;2.00;;;27.40;58.40;;;;;;5052522;28;20860;-67
2022/05/10 13:19:18;;;;;;;1.83;1.73;;;27.30;58.70;;;;;;5052560;28;20260;-67
2022/05/10 13:21:44;;;;;;;1.67;1.57;;;27.20;57.60;;;;;;5052430;28;20471;-67
2022/05/10 13:24:16;;;;;;;4.83;2.07;;;27.10;57.70;;;;;;5052485;28;20404;-67
2022/05/10 13:26:59;;;;;;;2.97;2.47;;;27.10;57.10;;;;;;5034548;28;20250;-66